Time;durP1;ratioP1;P1;durP2;ratioP2;P2;SDS_P1;SDS_P2;PMS_P1;PMS_P2;Temp;Humidity;BMP_temperature;BMP_pressure;BME280_temperature;BME280_humidity;BME280_pressure;Samples;Min_cycle;Max_cycle;Signal;HPM_P1;HPM_P2
2023/08/08 00:00:05;;;;;;;2.55;0.80;;;16.30;99.90;;;;;;4993408;28;20380;-87
2023/08/08 00:02:31;;;;;;;1.27;0.75;;;16.30;99.90;;;;;;4978004;28;20601;-86
2023/08/08 00:04:57;;;;;;;1.92;0.80;;;16.30;99.90;;;;;;4992075;28;20041;-86
2023/08/08 00:07:22;;;;;;;2.60;0.77;;;16.30;99.90;;;;;;4976998;28;20463;-87
2023/08/08 00:09:48;;;;;;;2.85;1.25;;;16.30;99.90;;;;;;4993827;28;20102;-84
2023/08/08 00:12:13;;;;;;;2.22;0.88;;;16.30;99.90;;;;;;4978509;28;20058;-83
2023/08/08 00:14:39;;;;;;;1.25;0.80;;;16.30;99.90;;;;;;4995891;28;20030;-85
2023/08/08 00:17:04;;;;;;;2.25;0.82;;;16.20;99.90;;;;;;4997168;28;20026;-85
2023/08/08 00:19:30;;;;;;;2.08;0.80;;;16.30;99.90;;;;;;4979327;28;20048;-85
2023/08/08 00:21:56;;;;;;;2.00;1.08;;;16.20;99.90;;;;;;4997467;28;20026;-85
2023/08/08 00:24:21;;;;;;;3.08;0.90;;;16.30;99.90;;;;;;4979477;28;20399;-85
2023/08/08 00:26:47;;;;;;;2.35;0.80;;;16.30;99.90;;;;;;4996859;28;20034;-85
2023/08/08 00:29:12;;;;;;;3.10;0.93;;;16.30;99.90;;;;;;4996742;28;20027;-89
2023/08/08 00:31:38;;;;;;;1.23;0.80;;;16.20;99.90;;;;;;4979083;28;20027;-85
2023/08/08 00:34:04;;;;;;;3.63;0.73;;;16.20;99.90;;;;;;4997276;28;20038;-87
2023/08/08 00:36:29;;;;;;;1.45;0.70;;;16.30;99.90;;;;;;4995999;28;20026;-89
2023/08/08 00:38:55;;;;;;;1.33;0.73;;;16.30;99.90;;;;;;4996201;28;20108;-88
2023/08/08 00:41:21;;;;;;;1.92;0.93;;;16.30;99.90;;;;;;4979949;28;20027;-88
2023/08/08 00:43:47;;;;;;;1.30;0.90;;;16.30;99.90;;;;;;4996414;28;20050;-89
2023/08/08 00:46:13;;;;;;;4.28;0.80;;;16.30;99.90;;;;;;4996238;28;20058;-84
2023/08/08 00:48:39;;;;;;;2.78;0.77;;;16.40;99.90;;;;;;4980031;28;20026;-84
2023/08/08 00:51:04;;;;;;;3.60;0.82;;;16.30;99.90;;;;;;5000430;28;20089;-90
2023/08/08 00:53:33;;;;;;;1.20;0.80;;;16.30;99.90;;;;;;5000214;28;20466;-88
2023/08/08 00:56:00;;;;;;;1.35;0.80;;;16.30;99.90;;;;;;4982447;28;20026;-85
2023/08/08 00:58:26;;;;;;;2.00;0.80;;;16.30;99.90;;;;;;4999622;28;20443;-85
2023/08/08 01:00:54;;;;;;;1.60;1.00;;;16.30;99.90;;;;;;4999701;28;20038;-84
2023/08/08 01:03:20;;;;;;;3.22;0.80;;;16.30;99.90;;;;;;4981984;28;20058;-84
2023/08/08 01:06:15;;;;;;;2.85;0.98;;;16.30;99.90;;;;;;4981664;28;20428;-85
2023/08/08 01:09:04;;;;;;;2.78;0.88;;;16.30;99.90;;;;;;4957578;28;20043;-86
2023/08/08 01:11:32;;;;;;;2.05;0.90;;;16.30;99.90;;;;;;4979792;28;20456;-87
2023/08/08 01:13:58;;;;;;;1.83;0.93;;;16.20;99.90;;;;;;4964087;28;20471;-86
2023/08/08 01:16:26;;;;;;;2.55;1.38;;;16.30;99.90;;;;;;4963152;28;20043;-87
2023/08/08 01:18:52;;;;;;;1.75;0.70;;;16.20;99.90;;;;;;4980007;28;20105;-86
2023/08/08 01:21:18;;;;;;;2.22;1.10;;;16.20;99.90;;;;;;4961259;28;20062;-84
2023/08/08 01:23:52;;;;;;;1.05;0.73;;;16.20;99.90;;;;;;4978225;28;20503;-85
2023/08/08 01:26:18;;;;;;;3.05;1.10;;;16.20;99.90;;;;;;4961174;28;20082;-83
2023/08/08 01:28:44;;;;;;;2.10;0.80;;;16.10;99.90;;;;;;4961915;28;20055;-84
2023/08/08 01:31:10;;;;;;;1.17;0.77;;;16.10;99.90;;;;;;4962091;28;20034;-84
2023/08/08 01:33:36;;;;;;;1.83;0.90;;;16.10;99.90;;;;;;4962668;28;20089;-84
2023/08/08 01:36:10;;;;;;;4.70;0.90;;;16.00;99.90;;;;;;4981254;28;20031;-84
2023/08/08 01:38:43;;;;;;;1.85;0.95;;;16.00;99.90;;;;;;4980513;28;20031;-83
2023/08/08 01:41:08;;;;;;;1.70;0.80;;;16.00;99.90;;;;;;4980999;28;20026;-83
2023/08/08 01:43:37;;;;;;;1.00;0.70;;;16.00;99.90;;;;;;4962332;28;20058;-83
2023/08/08 01:46:04;;;;;;;2.22;0.80;;;16.00;99.90;;;;;;4963096;28;20031;-83
2023/08/08 01:48:29;;;;;;;1.98;0.80;;;16.00;99.90;;;;;;4962446;28;20051;-83
2023/08/08 01:50:55;;;;;;;3.42;1.00;;;16.00;99.90;;;;;;4963075;28;20495;-83
2023/08/08 01:53:21;;;;;;;2.58;0.90;;;16.00;99.90;;;;;;4962475;28;20034;-81
2023/08/08 01:55:46;;;;;;;2.47;0.70;;;16.00;99.90;;;;;;4962647;28;20102;-83
2023/08/08 01:58:12;;;;;;;4.05;1.02;;;15.90;99.90;;;;;;4962743;28;20026;-83
2023/08/08 02:00:38;;;;;;;1.35;0.77;;;15.90;99.90;;;;;;4961147;28;20070;-83
2023/08/08 02:03:03;;;;;;;1.58;0.82;;;15.90;99.90;;;;;;4961649;28;20066;-83
2023/08/08 02:05:29;;;;;;;1.77;0.73;;;15.90;99.90;;;;;;4961716;28;20027;-83
2023/08/08 02:07:55;;;;;;;1.40;0.88;;;15.90;99.90;;;;;;4979667;28;20039;-85
2023/08/08 02:10:21;;;;;;;2.55;0.90;;;15.90;99.90;;;;;;4962993;28;20026;-83
2023/08/08 02:12:46;;;;;;;2.38;1.02;;;15.90;99.90;;;;;;4979889;28;20037;-84
2023/08/08 02:15:12;;;;;;;7.90;0.85;;;15.90;99.90;;;;;;4963329;28;20439;-84
2023/08/08 02:17:38;;;;;;;3.03;1.02;;;15.90;99.90;;;;;;4962977;28;20096;-84
2023/08/08 02:20:05;;;;;;;1.38;0.80;;;15.90;99.90;;;;;;4980841;28;20101;-83
2023/08/08 02:22:30;;;;;;;2.00;1.00;;;16.00;99.90;;;;;;4963075;28;20120;-84
2023/08/08 02:24:56;;;;;;;1.63;0.90;;;15.90;99.90;;;;;;4963977;28;20026;-84
2023/08/08 02:27:21;;;;;;;2.90;0.75;;;16.00;99.90;;;;;;4979883;28;20027;-82
2023/08/08 02:29:47;;;;;;;1.17;0.80;;;16.00;99.90;;;;;;4962218;28;20556;-84
2023/08/08 02:32:13;;;;;;;1.73;0.88;;;16.00;99.90;;;;;;4962337;28;20031;-84
2023/08/08 02:34:38;;;;;;;4.88;1.00;;;16.00;99.90;;;;;;4961823;28;20033;-84
2023/08/08 02:37:04;;;;;;;2.28;0.95;;;16.00;99.90;;;;;;4961480;28;20070;-85
2023/08/08 02:39:30;;;;;;;2.40;1.10;;;16.10;99.90;;;;;;4961244;28;20030;-85
2023/08/08 02:41:55;;;;;;;3.53;1.00;;;16.10;99.90;;;;;;4961320;28;20031;-85
2023/08/08 02:44:22;;;;;;;2.17;0.70;;;16.10;99.90;;;;;;4978183;28;20122;-83
2023/08/08 02:46:48;;;;;;;2.05;0.73;;;16.10;99.90;;;;;;4960519;28;20038;-85
2023/08/08 02:49:14;;;;;;;2.88;1.00;;;16.10;99.90;;;;;;4959020;28;20031;-85
2023/08/08 02:51:39;;;;;;;1.85;0.98;;;16.10;99.90;;;;;;4975773;28;20483;-85
2023/08/08 02:54:05;;;;;;;4.28;1.52;;;16.10;99.90;;;;;;4959087;28;20039;-89
2023/08/08 02:56:30;;;;;;;2.58;1.10;;;16.10;99.90;;;;;;4975307;28;20035;-87
2023/08/08 02:58:56;;;;;;;3.13;0.70;;;16.10;99.90;;;;;;4959038;28;20023;-87
2023/08/08 03:01:23;;;;;;;2.10;0.95;;;16.10;99.90;;;;;;4958954;28;20368;-83
2023/08/08 03:03:48;;;;;;;2.65;0.95;;;16.10;99.90;;;;;;4958956;28;20034;-87
2023/08/08 03:06:14;;;;;;;2.17;0.95;;;16.10;99.90;;;;;;4958996;28;20069;-87
2023/08/08 03:08:39;;;;;;;3.05;0.85;;;16.10;99.90;;;;;;4958957;28;20041;-87
2023/08/08 03:11:05;;;;;;;1.35;0.73;;;16.10;99.90;;;;;;4958648;28;20101;-87
2023/08/08 03:13:31;;;;;;;2.22;0.95;;;16.20;99.90;;;;;;4958271;28;20031;-88
2023/08/08 03:15:56;;;;;;;1.30;0.80;;;16.20;99.90;;;;;;4958939;28;20031;-87
2023/08/08 03:18:22;;;;;;;1.25;0.93;;;16.20;99.90;;;;;;4976327;28;20110;-88
2023/08/08 03:20:48;;;;;;;3.00;0.93;;;16.20;99.90;;;;;;4958191;28;20034;-87
2023/08/08 03:23:14;;;;;;;2.45;0.77;;;16.20;99.90;;;;;;4959057;28;20428;-88
2023/08/08 03:25:40;;;;;;;2.50;0.80;;;16.20;99.90;;;;;;4975039;28;20027;-89
2023/08/08 03:28:05;;;;;;;2.08;0.75;;;16.20;99.90;;;;;;4975202;28;20372;-88
2023/08/08 03:30:31;;;;;;;2.15;0.75;;;16.20;99.90;;;;;;4957593;28;20034;-86
2023/08/08 03:32:56;;;;;;;2.45;0.95;;;16.10;99.90;;;;;;4958001;28;20037;-88
2023/08/08 03:35:22;;;;;;;2.20;0.90;;;16.10;99.90;;;;;;4957812;28;20122;-88
2023/08/08 03:37:47;;;;;;;2.05;0.80;;;16.10;99.90;;;;;;4974661;28;20525;-87
2023/08/08 03:40:16;;;;;;;2.20;0.90;;;16.10;99.90;;;;;;4958270;28;20031;-87
2023/08/08 03:42:41;;;;;;;1.40;0.80;;;16.00;99.90;;;;;;4957556;28;20114;-87
2023/08/08 03:45:08;;;;;;;2.60;1.05;;;16.00;99.90;;;;;;4957878;28;20074;-85
2023/08/08 03:47:33;;;;;;;3.33;0.90;;;16.00;99.90;;;;;;4957354;28;20034;-85
2023/08/08 03:49:59;;;;;;;1.92;0.80;;;16.00;99.90;;;;;;4957686;28;20027;-86
2023/08/08 03:52:25;;;;;;;3.85;0.95;;;16.00;99.90;;;;;;4958227;28;20042;-84
2023/08/08 03:54:51;;;;;;;5.00;1.10;;;16.00;99.90;;;;;;4975022;28;20392;-85
2023/08/08 03:57:17;;;;;;;2.22;0.82;;;16.00;99.90;;;;;;4958358;28;20488;-85
2023/08/08 03:59:43;;;;;;;1.77;0.68;;;15.90;99.90;;;;;;4957682;28;20058;-84
2023/08/08 04:02:08;;;;;;;3.03;1.05;;;16.00;99.90;;;;;;4975499;28;20027;-86
2023/08/08 04:04:34;;;;;;;3.75;0.90;;;15.90;99.90;;;;;;4957499;28;20034;-86
2023/08/08 04:07:00;;;;;;;1.23;0.90;;;15.80;99.90;;;;;;4958597;28;20038;-87
2023/08/08 04:09:25;;;;;;;2.33;1.00;;;15.80;99.90;;;;;;4975440;28;20031;-87
2023/08/08 04:11:51;;;;;;;4.50;0.88;;;15.80;99.90;;;;;;4957762;28;20034;-86
2023/08/08 04:14:16;;;;;;;1.48;0.90;;;15.80;99.90;;;;;;4975313;28;20436;-85
2023/08/08 04:16:42;;;;;;;3.13;0.90;;;15.80;99.90;;;;;;4957342;28;20031;-84
2023/08/08 04:19:08;;;;;;;1.40;0.85;;;15.80;99.90;;;;;;4957874;28;20078;-85
2023/08/08 04:21:33;;;;;;;4.00;0.90;;;15.80;99.90;;;;;;4957306;28;20027;-84
2023/08/08 04:23:59;;;;;;;3.53;1.00;;;15.70;99.90;;;;;;4974987;28;20464;-86
2023/08/08 04:26:25;;;;;;;1.10;0.80;;;15.70;99.90;;;;;;4960857;28;20027;-87
2023/08/08 04:28:51;;;;;;;1.27;0.80;;;15.70;99.90;;;;;;4961011;28;20460;-87
2023/08/08 04:31:17;;;;;;;2.10;1.00;;;15.60;99.90;;;;;;4978811;28;20031;-84
2023/08/08 04:33:42;;;;;;;2.00;0.95;;;15.60;99.90;;;;;;4960999;28;20031;-84
2023/08/08 04:36:08;;;;;;;1.73;1.10;;;15.70;99.90;;;;;;4978953;28;20384;-83
2023/08/08 04:38:34;;;;;;;1.98;1.10;;;15.70;99.90;;;;;;4977310;28;20047;-82
2023/08/08 04:41:00;;;;;;;5.63;1.00;;;15.60;99.90;;;;;;4977694;28;20133;-83
2023/08/08 04:43:27;;;;;;;2.65;1.00;;;15.60;99.90;;;;;;4961288;28;20059;-83
2023/08/08 04:45:53;;;;;;;1.58;0.80;;;15.70;99.90;;;;;;4961250;28;20467;-82
2023/08/08 04:48:19;;;;;;;1.60;0.80;;;15.70;99.90;;;;;;4992369;28;20030;-85
2023/08/08 04:50:46;;;;;;;1.00;0.90;;;15.70;99.90;;;;;;4997757;28;20034;-84
2023/08/08 04:53:12;;;;;;;3.45;0.90;;;15.70;99.90;;;;;;4996911;28;20065;-83
2023/08/08 04:55:37;;;;;;;1.30;0.88;;;15.60;99.90;;;;;;4996545;28;20026;-83
2023/08/08 04:58:03;;;;;;;2.03;0.73;;;15.70;99.90;;;;;;4980101;28;20026;-84
2023/08/08 05:00:28;;;;;;;2.45;0.98;;;15.60;99.90;;;;;;4996232;28;20038;-82
2023/08/08 05:02:54;;;;;;;2.35;0.90;;;15.60;99.90;;;;;;4995272;28;20034;-84
2023/08/08 05:05:20;;;;;;;3.20;0.80;;;15.60;99.90;;;;;;4976765;28;20054;-84
2023/08/08 05:07:45;;;;;;;2.63;1.08;;;15.50;99.90;;;;;;4976464;28;20037;-84
2023/08/08 05:10:11;;;;;;;1.15;0.98;;;15.50;99.90;;;;;;4976736;28;20034;-84
2023/08/08 05:12:36;;;;;;;6.28;1.48;;;15.50;99.90;;;;;;4976619;28;20061;-84
2023/08/08 05:15:02;;;;;;;1.95;0.90;;;15.50;99.90;;;;;;4977853;28;20065;-84
2023/08/08 05:17:31;;;;;;;1.98;1.05;;;15.60;99.90;;;;;;4977043;28;20038;-84
2023/08/08 05:19:56;;;;;;;1.65;0.98;;;15.50;99.90;;;;;;4976481;28;20023;-84
2023/08/08 05:22:22;;;;;;;1.77;0.93;;;15.50;99.90;;;;;;4977631;28;20058;-85
2023/08/08 05:24:47;;;;;;;5.10;1.13;;;15.60;99.90;;;;;;4976443;28;20027;-84
2023/08/08 05:27:13;;;;;;;2.08;0.93;;;15.60;99.90;;;;;;4976557;28;20023;-84
2023/08/08 05:29:39;;;;;;;1.67;1.30;;;15.60;99.90;;;;;;4976390;28;20105;-84
2023/08/08 05:32:06;;;;;;;3.58;1.08;;;15.60;99.90;;;;;;4977440;28;20030;-84
2023/08/08 05:34:32;;;;;;;4.60;1.10;;;15.60;99.90;;;;;;4976435;28;20053;-83
2023/08/08 05:36:58;;;;;;;2.92;0.93;;;15.50;99.90;;;;;;4976246;28;20038;-85
2023/08/08 05:39:24;;;;;;;2.40;1.05;;;15.50;99.90;;;;;;4977672;28;20114;-85
2023/08/08 05:41:49;;;;;;;2.28;0.90;;;15.50;99.90;;;;;;4976708;28;20072;-84
2023/08/08 05:44:15;;;;;;;1.55;0.93;;;15.50;99.90;;;;;;4976682;28;20039;-83
2023/08/08 05:46:41;;;;;;;2.85;1.17;;;15.50;99.90;;;;;;4975947;28;20033;-83
2023/08/08 05:49:06;;;;;;;1.98;1.08;;;15.50;99.90;;;;;;4976611;28;20027;-84
2023/08/08 05:51:32;;;;;;;1.77;1.10;;;15.50;99.90;;;;;;4976032;28;20038;-83
2023/08/08 05:53:58;;;;;;;2.45;0.88;;;15.50;99.90;;;;;;4976146;28;20121;-84
2023/08/08 05:56:23;;;;;;;4.45;0.90;;;15.50;99.90;;;;;;4977620;28;20037;-83
2023/08/08 05:58:49;;;;;;;1.55;0.77;;;15.60;99.90;;;;;;4975916;28;20460;-84
2023/08/08 06:01:14;;;;;;;2.13;0.80;;;15.60;99.90;;;;;;4976526;28;20030;-85
2023/08/08 06:03:40;;;;;;;1.77;1.00;;;15.70;99.90;;;;;;4975453;28;20110;-85
2023/08/08 06:06:06;;;;;;;1.88;1.10;;;15.70;99.90;;;;;;4976064;28;20053;-85
2023/08/08 06:08:32;;;;;;;1.42;0.70;;;15.70;99.90;;;;;;4976929;28;20037;-83
2023/08/08 06:10:57;;;;;;;3.50;1.00;;;15.70;99.90;;;;;;4976320;28;20031;-83
2023/08/08 06:13:23;;;;;;;2.28;1.05;;;15.80;99.90;;;;;;4976770;28;20464;-83
2023/08/08 06:15:49;;;;;;;1.90;1.00;;;15.80;99.90;;;;;;4976446;28;20510;-83
2023/08/08 06:18:15;;;;;;;2.15;1.00;;;15.80;99.90;;;;;;4976806;28;20066;-84
2023/08/08 06:20:41;;;;;;;2.30;1.02;;;15.80;99.90;;;;;;4975015;28;20034;-84
2023/08/08 06:23:07;;;;;;;2.42;1.00;;;15.90;99.90;;;;;;4975176;28;20031;-84
2023/08/08 06:25:32;;;;;;;1.77;0.90;;;15.90;99.90;;;;;;4975929;28;20030;-85
2023/08/08 06:27:58;;;;;;;1.20;0.80;;;16.00;99.90;;;;;;4975291;28;20081;-84
2023/08/08 06:30:23;;;;;;;3.42;1.00;;;16.00;99.90;;;;;;4976880;28;20380;-84
2023/08/08 06:32:49;;;;;;;3.08;1.00;;;16.00;99.90;;;;;;4975999;28;20136;-85
2023/08/08 06:35:16;;;;;;;4.28;1.40;;;16.00;99.90;;;;;;4975367;28;20042;-81
2023/08/08 06:37:42;;;;;;;2.72;1.30;;;16.00;99.90;;;;;;4975134;28;20030;-82
2023/08/08 06:40:09;;;;;;;3.28;1.23;;;16.00;99.90;;;;;;4975928;28;20048;-80
2023/08/08 06:42:34;;;;;;;2.08;0.90;;;16.10;99.90;;;;;;4976280;28;20030;-80
2023/08/08 06:45:00;;;;;;;2.47;1.00;;;16.10;99.90;;;;;;4974160;28;20050;-80
2023/08/08 06:47:26;;;;;;;3.70;1.08;;;16.10;99.90;;;;;;4974470;28;20026;-80
2023/08/08 06:49:51;;;;;;;3.92;1.00;;;16.20;99.90;;;;;;4975290;28;20070;-83
2023/08/08 06:52:17;;;;;;;4.28;0.85;;;16.20;99.90;;;;;;4974680;28;20031;-80
2023/08/08 06:54:42;;;;;;;2.17;0.82;;;16.20;99.90;;;;;;4974453;28;20031;-79
2023/08/08 06:57:08;;;;;;;2.92;1.08;;;16.30;99.90;;;;;;4976803;28;20114;-80
2023/08/08 06:59:33;;;;;;;1.25;0.77;;;16.30;99.90;;;;;;4995343;28;20026;-81
2023/08/08 07:01:59;;;;;;;1.67;1.27;;;16.30;99.90;;;;;;4977675;28;20029;-80
2023/08/08 07:04:25;;;;;;;3.78;0.93;;;16.40;99.90;;;;;;4978096;28;20471;-80
2023/08/08 07:06:50;;;;;;;2.97;0.80;;;16.40;99.90;;;;;;4993298;28;20026;-80
2023/08/08 07:09:16;;;;;;;2.10;0.90;;;16.40;99.90;;;;;;4994043;28;20041;-79
2023/08/08 07:11:42;;;;;;;1.40;0.88;;;16.40;99.90;;;;;;4994309;28;20026;-79
2023/08/08 07:14:07;;;;;;;2.60;0.77;;;16.50;99.90;;;;;;4993796;28;20494;-79
2023/08/08 07:16:33;;;;;;;3.85;1.05;;;16.60;99.90;;;;;;4994762;28;20375;-80
2023/08/08 07:18:59;;;;;;;3.55;0.80;;;16.60;99.90;;;;;;4994386;28;20510;-80
2023/08/08 07:21:25;;;;;;;4.22;1.00;;;16.60;99.90;;;;;;4977503;28;20033;-80
2023/08/08 07:23:50;;;;;;;1.95;1.13;;;16.60;99.90;;;;;;4994657;28;20034;-79
2023/08/08 07:26:16;;;;;;;3.67;0.90;;;16.60;99.90;;;;;;4994789;28;20353;-79
2023/08/08 07:28:41;;;;;;;3.55;1.50;;;16.70;99.90;;;;;;4993268;28;20117;-79
2023/08/08 07:31:07;;;;;;;3.03;1.08;;;16.70;99.90;;;;;;4994677;28;20113;-79
2023/08/08 07:33:33;;;;;;;1.80;0.90;;;16.70;99.90;;;;;;4994259;28;20038;-79
2023/08/08 07:35:58;;;;;;;1.60;0.80;;;16.80;99.90;;;;;;4993773;28;20035;-79
2023/08/08 07:38:24;;;;;;;2.03;0.80;;;16.80;99.90;;;;;;4977179;28;20026;-79
2023/08/08 07:40:49;;;;;;;2.35;0.88;;;16.80;99.90;;;;;;4976825;28;20467;-79
2023/08/08 07:43:15;;;;;;;4.40;1.20;;;16.90;99.90;;;;;;4993578;28;20034;-79
2023/08/08 07:45:42;;;;;;;1.85;0.80;;;16.90;99.90;;;;;;4993136;28;20042;-79
2023/08/08 07:48:08;;;;;;;1.60;0.95;;;16.90;99.90;;;;;;4993849;28;20058;-80
2023/08/08 07:50:33;;;;;;;0.95;0.73;;;16.90;99.90;;;;;;4994501;28;20053;-80
2023/08/08 07:52:59;;;;;;;4.47;1.40;;;16.90;99.90;;;;;;4994272;28;20048;-80
2023/08/08 07:55:24;;;;;;;2.17;0.80;;;17.00;99.90;;;;;;4993816;28;20093;-80
2023/08/08 07:57:50;;;;;;;1.48;0.80;;;17.00;99.90;;;;;;4976972;28;20034;-80
2023/08/08 08:00:18;;;;;;;2.50;0.88;;;17.00;99.90;;;;;;4994367;28;20113;-79
2023/08/08 08:02:44;;;;;;;3.33;1.05;;;17.10;99.90;;;;;;4997924;28;20023;-79
2023/08/08 08:05:11;;;;;;;0.85;0.63;;;17.10;99.90;;;;;;4998552;28;20030;-80
2023/08/08 08:07:37;;;;;;;2.05;0.70;;;17.10;99.90;;;;;;4997641;28;20034;-79
2023/08/08 08:10:04;;;;;;;7.43;0.93;;;17.20;99.90;;;;;;4997752;28;20093;-80
2023/08/08 08:12:31;;;;;;;1.55;0.82;;;17.20;99.90;;;;;;4981089;28;20062;-80
2023/08/08 08:14:57;;;;;;;1.35;0.70;;;17.20;99.90;;;;;;4980233;28;20081;-80
2023/08/08 08:17:23;;;;;;;3.67;1.10;;;17.30;99.90;;;;;;4997810;28;20053;-81
2023/08/08 08:19:50;;;;;;;1.98;0.63;;;17.40;99.90;;;;;;4997404;28;20030;-81
2023/08/08 08:22:15;;;;;;;1.83;0.93;;;17.40;99.90;;;;;;4980887;28;20035;-84
2023/08/08 08:24:41;;;;;;;2.08;0.70;;;17.40;99.90;;;;;;4996340;28;20029;-81
2023/08/08 08:27:07;;;;;;;3.65;0.88;;;17.50;99.90;;;;;;4981101;28;20137;-81
2023/08/08 08:29:32;;;;;;;1.25;0.80;;;17.50;99.90;;;;;;4980376;28;20026;-80
2023/08/08 08:31:58;;;;;;;1.95;0.57;;;17.50;99.90;;;;;;4979997;28;20034;-80
2023/08/08 08:34:24;;;;;;;1.75;0.68;;;17.50;99.90;;;;;;4980755;28;20486;-79
2023/08/08 08:36:49;;;;;;;2.75;0.60;;;17.60;99.90;;;;;;4996278;28;20041;-80
2023/08/08 08:39:15;;;;;;;1.85;0.68;;;17.60;99.90;;;;;;4997924;28;20537;-81
2023/08/08 08:41:40;;;;;;;4.68;1.00;;;17.60;99.90;;;;;;4997985;28;20022;-84
2023/08/08 08:44:06;;;;;;;2.97;0.80;;;17.70;99.90;;;;;;4979753;28;20476;-83
2023/08/08 08:46:35;;;;;;;4.63;0.70;;;17.70;99.90;;;;;;4997287;28;20348;-80
2023/08/08 08:49:05;;;;;;;1.20;0.70;;;17.80;99.90;;;;;;4979879;28;20479;-83
2023/08/08 08:51:31;;;;;;;2.92;0.80;;;17.80;99.90;;;;;;4980621;28;20379;-80
2023/08/08 08:53:58;;;;;;;2.63;1.05;;;17.90;99.90;;;;;;4996535;28;20113;-79
2023/08/08 08:56:24;;;;;;;0.80;0.70;;;17.90;99.90;;;;;;4997460;28;20027;-81
2023/08/08 08:58:51;;;;;;;2.78;0.70;;;17.90;99.90;;;;;;4979209;28;20030;-81
2023/08/08 09:01:17;;;;;;;1.85;0.77;;;18.00;99.90;;;;;;4996633;28;20076;-81
2023/08/08 09:03:44;;;;;;;3.55;1.05;;;18.00;99.90;;;;;;4996381;28;20030;-80
2023/08/08 09:06:12;;;;;;;2.38;0.90;;;18.10;99.90;;;;;;4979287;28;20129;-81
2023/08/08 09:08:37;;;;;;;1.75;1.02;;;18.10;99.90;;;;;;4995347;28;20487;-80
2023/08/08 09:11:03;;;;;;;2.25;1.23;;;18.10;99.90;;;;;;4994608;28;20304;-81
2023/08/08 09:13:38;;;;;;;1.77;1.00;;;18.20;99.90;;;;;;4990611;28;20026;-80
2023/08/08 09:16:06;;;;;;;1.83;0.95;;;18.30;99.90;;;;;;4995019;28;20056;-79
2023/08/08 09:18:32;;;;;;;1.92;0.80;;;18.30;99.90;;;;;;4989632;28;20037;-79
2023/08/08 09:20:58;;;;;;;1.13;0.73;;;18.30;99.90;;;;;;4983237;28;20033;-81
2023/08/08 09:23:24;;;;;;;1.63;1.35;;;18.30;99.90;;;;;;4988965;28;20030;-81
2023/08/08 09:25:50;;;;;;;1.85;0.80;;;18.40;99.90;;;;;;4987003;28;20482;-80
2023/08/08 09:28:15;;;;;;;2.08;0.70;;;18.50;99.90;;;;;;4987577;28;20443;-80
2023/08/08 09:30:42;;;;;;;4.43;1.17;;;18.60;99.90;;;;;;4992005;28;20113;-80
2023/08/08 09:33:08;;;;;;;1.95;0.90;;;18.60;99.90;;;;;;4992247;28;20467;-80
2023/08/08 09:35:33;;;;;;;2.78;1.02;;;18.70;99.90;;;;;;4993784;28;20109;-80
2023/08/08 09:37:59;;;;;;;1.52;0.85;;;18.70;99.90;;;;;;4991201;28;20467;-80
2023/08/08 09:40:25;;;;;;;2.38;0.95;;;18.60;99.90;;;;;;4991479;28;20034;-81
2023/08/08 09:42:53;;;;;;;2.28;0.82;;;18.70;99.90;;;;;;4991914;28;20045;-80
2023/08/08 09:45:19;;;;;;;2.38;0.80;;;18.70;99.90;;;;;;4996919;28;20069;-81
2023/08/08 09:47:46;;;;;;;1.63;0.80;;;18.80;99.90;;;;;;4996330;28;20442;-81
2023/08/08 09:50:11;;;;;;;2.28;0.80;;;18.80;99.90;;;;;;4995235;28;20142;-82
2023/08/08 09:52:40;;;;;;;1.98;0.63;;;18.80;99.90;;;;;;4995203;28;20060;-82
2023/08/08 09:55:06;;;;;;;1.27;0.90;;;18.90;99.90;;;;;;4989761;28;20199;-81
2023/08/08 09:57:32;;;;;;;4.90;0.82;;;19.00;99.90;;;;;;4990376;28;20502;-80
2023/08/08 09:59:58;;;;;;;3.42;0.88;;;19.10;99.90;;;;;;4991688;28;20041;-81
2023/08/08 10:02:24;;;;;;;1.60;0.60;;;19.10;99.90;;;;;;4996215;28;20034;-81
2023/08/08 10:04:52;;;;;;;2.22;0.75;;;19.10;99.90;;;;;;4995095;28;20066;-81
2023/08/08 10:07:18;;;;;;;2.40;0.57;;;19.10;99.90;;;;;;4995451;28;20448;-79
2023/08/08 10:09:43;;;;;;;2.20;0.70;;;19.10;99.90;;;;;;4995712;28;20117;-81
2023/08/08 10:12:11;;;;;;;0.90;0.45;;;19.20;99.90;;;;;;4995692;28;20038;-81
2023/08/08 10:14:40;;;;;;;2.70;0.50;;;19.10;99.90;;;;;;4995242;28;20050;-81
2023/08/08 10:17:06;;;;;;;1.70;0.52;;;19.20;99.90;;;;;;4994158;28;20026;-80
2023/08/08 10:19:32;;;;;;;1.08;0.90;;;19.20;99.30;;;;;;4994940;28;20037;-81
2023/08/08 10:22:09;;;;;;;0.75;0.50;;;19.30;99.30;;;;;;4993660;28;20026;-81
2023/08/08 10:24:36;;;;;;;1.73;0.47;;;19.30;99.20;;;;;;4995667;28;20022;-80
2023/08/08 10:27:04;;;;;;;2.35;0.90;;;19.30;98.90;;;;;;4995250;28;20030;-79
2023/08/08 10:29:32;;;;;;;1.98;0.70;;;19.40;98.10;;;;;;4996057;28;20030;-81
2023/08/08 10:32:05;;;;;;;2.15;0.55;;;19.40;98.20;;;;;;4995282;28;20054;-83
2023/08/08 10:34:39;;;;;;;2.95;0.60;;;19.50;97.00;;;;;;4981244;28;20189;-88
2023/08/08 10:37:09;;;;;;;1.08;0.45;;;19.50;97.30;;;;;;4979196;28;20068;-83
2023/08/08 10:39:34;;;;;;;1.02;0.60;;;19.60;97.60;;;;;;4994850;28;20268;-83
2023/08/08 10:42:04;;;;;;;1.23;0.40;;;19.60;97.90;;;;;;4992961;28;20108;-84
2023/08/08 10:44:30;;;;;;;2.08;0.57;;;19.80;97.20;;;;;;4994760;28;20082;-83
2023/08/08 10:46:56;;;;;;;0.90;0.45;;;19.80;96.90;;;;;;4994177;28;20034;-87
2023/08/08 10:49:21;;;;;;;2.22;0.70;;;19.90;97.10;;;;;;4994457;28;20026;-82
2023/08/08 10:51:49;;;;;;;0.98;0.63;;;19.90;96.10;;;;;;4995755;28;20054;-82
2023/08/08 10:54:27;;;;;;;2.72;1.52;;;19.90;96.40;;;;;;4976565;28;20046;-82
2023/08/08 10:56:54;;;;;;;1.10;0.80;;;20.00;96.30;;;;;;4963473;28;20030;-82
2023/08/08 10:59:24;;;;;;;3.50;0.80;;;20.10;95.80;;;;;;4986067;28;20034;-82
2023/08/08 11:01:51;;;;;;;1.10;0.50;;;20.10;95.40;;;;;;4988144;28;20034;-80
2023/08/08 11:04:23;;;;;;;1.35;0.35;;;20.10;95.30;;;;;;4975847;28;20035;-81
2023/08/08 11:06:49;;;;;;;0.60;0.47;;;20.10;95.20;;;;;;4974023;28;20066;-80
2023/08/08 11:09:16;;;;;;;0.88;0.50;;;20.10;95.80;;;;;;4989146;28;20038;-80
2023/08/08 11:11:44;;;;;;;2.40;0.50;;;20.10;96.60;;;;;;4994767;28;20117;-80
2023/08/08 11:14:17;;;;;;;1.40;0.50;;;20.20;96.10;;;;;;4994290;28;20041;-81
2023/08/08 11:16:45;;;;;;;0.88;0.50;;;20.30;96.70;;;;;;4993705;28;20399;-82
2023/08/08 11:19:12;;;;;;;1.45;0.40;;;20.30;95.50;;;;;;4963436;28;20482;-81
2023/08/08 11:21:39;;;;;;;3.15;0.77;;;20.30;95.60;;;;;;4986116;28;20027;-82
2023/08/08 11:24:06;;;;;;;1.40;0.50;;;20.30;95.60;;;;;;4994807;28;20058;-81
2023/08/08 11:26:33;;;;;;;1.42;0.45;;;20.40;95.70;;;;;;4985225;28;20053;-82
2023/08/08 11:29:00;;;;;;;1.65;0.55;;;20.40;95.10;;;;;;4983122;28;20031;-80
2023/08/08 11:31:26;;;;;;;1.77;0.65;;;20.50;94.80;;;;;;4974055;28;20087;-82
2023/08/08 11:33:53;;;;;;;0.95;0.40;;;20.50;93.90;;;;;;4987151;28;20030;-80
2023/08/08 11:36:20;;;;;;;1.35;0.45;;;20.60;93.80;;;;;;4983007;28;20376;-81
2023/08/08 11:38:46;;;;;;;0.65;0.30;;;20.70;93.30;;;;;;4988034;28;20031;-81
2023/08/08 11:41:13;;;;;;;1.40;0.60;;;20.70;93.90;;;;;;4992681;28;20029;-79
2023/08/08 11:43:40;;;;;;;2.22;0.38;;;20.80;94.50;;;;;;4983867;28;20053;-80
2023/08/08 11:46:12;;;;;;;0.68;0.38;;;20.80;94.30;;;;;;4976968;28;20058;-80
2023/08/08 11:48:38;;;;;;;1.70;0.40;;;20.70;94.30;;;;;;4977968;28;20030;-79
2023/08/08 11:51:05;;;;;;;2.60;0.40;;;20.70;95.30;;;;;;4976316;28;20098;-80
2023/08/08 11:53:30;;;;;;;1.10;0.47;;;20.80;94.80;;;;;;4984416;28;20037;-80
2023/08/08 11:55:58;;;;;;;2.63;0.47;;;20.80;94.60;;;;;;4991924;28;20042;-79
2023/08/08 11:58:25;;;;;;;3.10;0.63;;;20.90;93.60;;;;;;4993692;28;20031;-80
2023/08/08 12:00:51;;;;;;;0.80;0.50;;;20.90;93.80;;;;;;4980848;28;20051;-79
2023/08/08 12:03:18;;;;;;;0.90;0.50;;;20.90;93.50;;;;;;4989965;28;20069;-76
2023/08/08 12:05:45;;;;;;;1.45;0.40;;;20.90;92.40;;;;;;4990496;28;20034;-80
2023/08/08 12:08:11;;;;;;;0.95;0.47;;;20.90;91.60;;;;;;4993772;28;20510;-79
2023/08/08 12:10:38;;;;;;;1.25;0.70;;;21.00;90.80;;;;;;4981789;28;20019;-80
2023/08/08 12:13:03;;;;;;;2.78;0.50;;;21.00;90.70;;;;;;4980052;28;20031;-80
2023/08/08 12:15:31;;;;;;;2.80;0.50;;;21.10;91.50;;;;;;4978513;28;20039;-80
2023/08/08 12:17:59;;;;;;;2.97;0.40;;;21.20;92.00;;;;;;4977921;28;20037;-81
2023/08/08 12:20:31;;;;;;;1.67;0.60;;;21.30;92.40;;;;;;4982827;28;20058;-79
2023/08/08 12:22:57;;;;;;;1.80;0.50;;;21.40;92.60;;;;;;4992970;28;20455;-79
2023/08/08 12:25:23;;;;;;;1.17;0.50;;;21.50;92.40;;;;;;4992935;28;20022;-80
2023/08/08 12:27:49;;;;;;;1.20;0.38;;;21.60;92.00;;;;;;4976678;28;20533;-80
2023/08/08 12:30:15;;;;;;;1.08;0.50;;;21.70;92.00;;;;;;4988629;28;20026;-80
2023/08/08 12:32:41;;;;;;;1.23;0.60;;;21.80;91.30;;;;;;4976630;28;20030;-80
2023/08/08 12:35:07;;;;;;;1.00;0.40;;;21.80;90.80;;;;;;4976045;28;20085;-80
2023/08/08 12:37:33;;;;;;;0.70;0.40;;;21.90;89.80;;;;;;4992504;28;20864;-80
2023/08/08 12:39:59;;;;;;;2.83;0.95;;;21.90;90.00;;;;;;4980701;28;20026;-79
2023/08/08 12:42:25;;;;;;;1.75;0.50;;;22.00;90.30;;;;;;4982650;28;20031;-80